Bloomington, IN (47401)

12:40 AM EST on January 24, 2017 (GMT -0500)
Johnson Turtle Field | | Change Station
Active Advisory: Flood Warning

Elev 686 ft 39.12 °N, 86.51 °W | Updated 12 minutes ago

Overcast
Overcast
38.8 °F
Feels Like 39 °F
N
0.0
Wind Variable Wind from West
Gusts 5.0 mph

Today
High -- | Low -- °F
--% Chance of Precip.
Yesterday
High -- | Low -- °F
Precip. -- in
Pressure 29.78 in
Visibility 10.0 miles
Clouds Overcast 1500 ft
Windchill 39 °F
Dew Point 37 °F
Humidity 93%
Rainfall 0.00 in
Snow Depth Not available.
7:58 AM 5:57 PM
Waning Crescent, 14% visible
SPECI KBMG 240519Z AUTO 31003KT 10SM OVC015 04/01 A2978 RMK AO2 T00390011
Pressure 29.78 in
Visibility 10.0 miles
Clouds Overcast 1500 ft
Windchill 39 °F
Dew Point 37 °F
Humidity 93%
Rainfall 0.00 in
Snow Depth Not available.
7:58 AM 5:57 PM
Waning Crescent, 14% visible
SPECI KBMG 240519Z AUTO 31003KT 10SM OVC015 04/01 A2978 RMK AO2 T00390011

Get Your Daily Forecast Email!

Thanks for signing up!

Be on the lookout for a verification email in your inbox.

You'll start receiving the daily forecast at 8 AM.

×

10-Day Weather Forecast

Almanac

Astronomy

Jan. 24, 2017 Rise Set
Actual Time
Civil Twilight
Nautical Twilight
Astronomical Twilight
Moon
Length of Visible Light
Length of Day
Tomorrow will be .
, % of the Moon is Illuminated

Today's Extremes

State Highs State Lows

Community

WunderPhotos

Upload Photos

1,962,540 photos uploaded!

WunderBlog® & News

Nearby

Air Quality

  Air Quality AQ Index Pollutant
Not available.

Snow Depth

Station Depth Elevation

Earthquake Activity

City Distance Mag. Time & Date
Minimum magnitude displayed is 2.5.

Coastal Water Temperatures

Place Temperature

Stations

Nearby Weather Stations

Station Location Temp. Windchill Dew Point Humidity Wind Precip. Elev Updated Type
                   

Watches & Warnings

Flood Warning
Issued: 12:08 AM EST Jan. 24, 2017 – National Weather Service

The Flood Warning continues for
the White River at Spencer.
* Until Wednesday morning.
* At 11:30 PM Monday the stage was 16.0 feet.
* Flood stage is 14.0 feet.
* Minor flooding is occurring and minor flooding is forecast.
* Forecast... the river will continue to fall to below flood stage by
this evening.
* At 16.0 feet... flood water affects Gravel Pit. High water concerns
farmers in agricultural season about crops and livestock. Lowest
portions of trails 1 and 7 in mccormicks creek park flood.


Lat... Lon 3936 8666 3933 8674 3913 8696 3911 8692
      3928 8675 3934 8665